sensor_id;sensor_type;location;lat;lon;timestamp;pressure;altitude;pressure_sealevel;temperature;humidity
57050;BME280;42935;50.966;16.992;2023-02-21T00:02:59;100973.88;;;8.57;100.00
57050;BME280;42935;50.966;16.992;2023-02-21T00:06:19;100961.93;;;8.53;100.00
57050;BME280;42935;50.966;16.992;2023-02-21T00:09:39;100978.28;;;8.45;100.00
57050;BME280;42935;50.966;16.992;2023-02-21T00:12:58;100962.42;;;8.50;100.00
57050;BME280;42935;50.966;16.992;2023-02-21T00:16:17;100966.34;;;8.58;100.00
57050;BME280;42935;50.966;16.992;2023-02-21T00:19:37;100949.27;;;8.55;100.00
57050;BME280;42935;50.966;16.992;2023-02-21T00:22:57;100950.73;;;8.59;100.00
57050;BME280;42935;50.966;16.992;2023-02-21T00:26:18;100956.88;;;8.57;100.00
57050;BME280;42935;50.966;16.992;2023-02-21T00:29:35;100956.27;;;8.57;100.00
57050;BME280;42935;50.966;16.992;2023-02-21T00:32:55;100948.97;;;8.52;100.00
57050;BME280;42935;50.966;16.992;2023-02-21T00:36:16;100943.82;;;8.50;100.00
57050;BME280;42935;50.966;16.992;2023-02-21T00:39:34;100952.07;;;8.45;100.00
57050;BME280;42935;50.966;16.992;2023-02-21T00:42:54;100965.23;;;8.52;100.00
57050;BME280;42935;50.966;16.992;2023-02-21T00:46:16;100963.02;;;8.36;100.00
57050;BME280;42935;50.966;16.992;2023-02-21T00:49:36;100955.80;;;8.40;100.00
57050;BME280;42935;50.966;16.992;2023-02-21T00:52:56;100989.34;;;8.48;100.00
57050;BME280;42935;50.966;16.992;2023-02-21T00:56:12;100973.50;;;8.37;100.00
57050;BME280;42935;50.966;16.992;2023-02-21T00:59:28;100965.87;;;8.37;100.00
57050;BME280;42935;50.966;16.992;2023-02-21T01:02:48;100978.31;;;8.36;100.00
57050;BME280;42935;50.966;16.992;2023-02-21T01:06:10;100966.44;;;8.33;100.00
57050;BME280;42935;50.966;16.992;2023-02-21T01:09:28;100969.72;;;8.33;100.00
57050;BME280;42935;50.966;16.992;2023-02-21T01:12:48;100975.10;;;8.34;100.00
57050;BME280;42935;50.966;16.992;2023-02-21T01:16:08;100957.81;;;8.27;100.00
57050;BME280;42935;50.966;16.992;2023-02-21T01:19:28;100980.18;;;8.29;100.00
57050;BME280;42935;50.966;16.992;2023-02-21T01:22:51;100966.25;;;8.30;100.00
57050;BME280;42935;50.966;16.992;2023-02-21T01:26:11;100960.20;;;8.29;100.00
57050;BME280;42935;50.966;16.992;2023-02-21T01:29:33;100940.96;;;8.23;100.00
57050;BME280;42935;50.966;16.992;2023-02-21T01:32:53;100977.74;;;8.33;100.00
57050;BME280;42935;50.966;16.992;2023-02-21T01:36:11;100963.84;;;8.28;100.00
57050;BME280;42935;50.966;16.992;2023-02-21T01:39:27;100961.42;;;8.30;100.00
57050;BME280;42935;50.966;16.992;2023-02-21T01:42:46;100952.32;;;8.18;100.00
57050;BME280;42935;50.966;16.992;2023-02-21T01:46:12;100992.30;;;8.28;100.00
57050;BME280;42935;50.966;16.992;2023-02-21T01:49:35;100978.35;;;8.30;100.00
57050;BME280;42935;50.966;16.992;2023-02-21T01:52:56;100962.45;;;8.22;100.00
57050;BME280;42935;50.966;16.992;2023-02-21T01:56:16;100959.71;;;8.21;100.00
57050;BME280;42935;50.966;16.992;2023-02-21T01:59:36;100950.39;;;8.13;100.00
57050;BME280;42935;50.966;16.992;2023-02-21T02:03:03;100952.19;;;8.14;100.00
57050;BME280;42935;50.966;16.992;2023-02-21T02:06:23;100949.88;;;8.18;100.00
57050;BME280;42935;50.966;16.992;2023-02-21T02:09:43;100949.37;;;8.19;100.00
57050;BME280;42935;50.966;16.992;2023-02-21T02:29:47;100938.98;;;8.15;100.00
57050;BME280;42935;50.966;16.992;2023-02-21T02:36:20;100938.81;;;8.12;100.00
57050;BME280;42935;50.966;16.992;2023-02-21T02:39:39;100923.17;;;8.07;100.00
57050;BME280;42935;50.966;16.992;2023-02-21T02:46:13;100921.05;;;8.10;100.00
57050;BME280;42935;50.966;16.992;2023-02-21T02:49:26;100902.45;;;8.01;100.00
57050;BME280;42935;50.966;16.992;2023-02-21T02:52:36;100934.46;;;8.14;100.00
57050;BME280;42935;50.966;16.992;2023-02-21T02:59:10;100922.63;;;8.10;100.00
57050;BME280;42935;50.966;16.992;2023-02-21T03:05:59;100916.16;;;8.07;100.00
57050;BME280;42935;50.966;16.992;2023-02-21T03:09:17;100906.70;;;8.06;100.00
57050;BME280;42935;50.966;16.992;2023-02-21T03:16:03;100899.47;;;8.10;100.00
57050;BME280;42935;50.966;16.992;2023-02-21T03:19:07;100917.77;;;8.08;100.00
57050;BME280;42935;50.966;16.992;2023-02-21T03:22:22;100905.85;;;8.06;100.00
57050;BME280;42935;50.966;16.992;2023-02-21T03:25:34;100917.42;;;8.12;100.00
57050;BME280;42935;50.966;16.992;2023-02-21T03:28:43;100910.24;;;8.22;100.00
57050;BME280;42935;50.966;16.992;2023-02-21T03:31:59;100907.95;;;8.15;100.00
57050;BME280;42935;50.966;16.992;2023-02-21T03:35:19;100894.37;;;8.09;100.00
57050;BME280;42935;50.966;16.992;2023-02-21T03:38:30;100887.56;;;8.07;100.00
57050;BME280;42935;50.966;16.992;2023-02-21T03:41:39;100900.02;;;8.22;100.00
57050;BME280;42935;50.966;16.992;2023-02-21T03:44:46;100906.34;;;8.15;100.00
57050;BME280;42935;50.966;16.992;2023-02-21T03:47:56;100898.46;;;8.17;100.00
57050;BME280;42935;50.966;16.992;2023-02-21T03:51:07;100892.55;;;8.05;100.00
57050;BME280;42935;50.966;16.992;2023-02-21T03:54:16;100908.41;;;8.23;100.00
57050;BME280;42935;50.966;16.992;2023-02-21T03:57:24;100905.48;;;8.25;100.00
57050;BME280;42935;50.966;16.992;2023-02-21T04:00:34;100894.00;;;8.20;100.00
57050;BME280;42935;50.966;16.992;2023-02-21T04:03:46;100894.10;;;8.15;100.00
57050;BME280;42935;50.966;16.992;2023-02-21T04:06:57;100904.77;;;8.24;100.00
57050;BME280;42935;50.966;16.992;2023-02-21T04:10:09;100901.49;;;8.22;100.00
57050;BME280;42935;50.966;16.992;2023-02-21T04:13:16;100902.88;;;8.25;100.00
57050;BME280;42935;50.966;16.992;2023-02-21T04:16:22;100894.87;;;8.22;100.00
57050;BME280;42935;50.966;16.992;2023-02-21T04:19:27;100904.12;;;8.21;100.00
57050;BME280;42935;50.966;16.992;2023-02-21T04:22:36;100922.63;;;8.21;100.00
57050;BME280;42935;50.966;16.992;2023-02-21T04:25:45;100915.69;;;8.19;100.00
57050;BME280;42935;50.966;16.992;2023-02-21T04:29:02;100920.21;;;8.14;100.00
57050;BME280;42935;50.966;16.992;2023-02-21T04:32:10;100923.73;;;8.15;100.00
57050;BME280;42935;50.966;16.992;2023-02-21T04:35:19;100923.90;;;8.12;100.00
57050;BME280;42935;50.966;16.992;2023-02-21T04:38:29;100926.07;;;8.17;100.00
57050;BME280;42935;50.966;16.992;2023-02-21T04:41:37;100931.98;;;8.03;100.00
57050;BME280;42935;50.966;16.992;2023-02-21T04:44:46;100934.85;;;8.09;100.00
57050;BME280;42935;50.966;16.992;2023-02-21T04:48:27;100920.88;;;7.98;100.00
57050;BME280;42935;50.966;16.992;2023-02-21T04:51:35;100933.91;;;8.05;100.00
57050;BME280;42935;50.966;16.992;2023-02-21T04:54:45;100942.47;;;7.96;100.00
57050;BME280;42935;50.966;16.992;2023-02-21T04:57:54;100941.83;;;7.74;100.00
57050;BME280;42935;50.966;16.992;2023-02-21T05:01:03;100942.84;;;7.68;100.00
57050;BME280;42935;50.966;16.992;2023-02-21T05:04:12;100942.56;;;7.56;100.00
57050;BME280;42935;50.966;16.992;2023-02-21T05:07:17;100950.88;;;7.54;100.00
57050;BME280;42935;50.966;16.992;2023-02-21T05:10:26;100937.66;;;7.51;100.00
57050;BME280;42935;50.966;16.992;2023-02-21T05:13:35;100947.59;;;7.48;100.00
57050;BME280;42935;50.966;16.992;2023-02-21T05:16:42;100942.59;;;7.40;100.00
57050;BME280;42935;50.966;16.992;2023-02-21T05:20:22;100942.28;;;7.44;100.00
57050;BME280;42935;50.966;16.992;2023-02-21T05:23:28;100943.63;;;7.46;100.00
57050;BME280;42935;50.966;16.992;2023-02-21T05:26:43;100942.14;;;7.43;100.00
57050;BME280;42935;50.966;16.992;2023-02-21T05:29:52;100943.28;;;7.39;100.00
57050;BME280;42935;50.966;16.992;2023-02-21T05:33:01;100939.23;;;7.35;100.00
57050;BME280;42935;50.966;16.992;2023-02-21T05:36:11;100941.98;;;7.29;100.00
57050;BME280;42935;50.966;16.992;2023-02-21T05:39:20;100952.25;;;7.23;100.00
57050;BME280;42935;50.966;16.992;2023-02-21T05:42:28;100948.71;;;7.19;100.00
57050;BME280;42935;50.966;16.992;2023-02-21T05:45:39;100951.69;;;7.17;100.00
57050;BME280;42935;50.966;16.992;2023-02-21T05:48:46;100958.39;;;7.18;100.00
57050;BME280;42935;50.966;16.992;2023-02-21T05:51:54;100961.34;;;7.13;100.00
57050;BME280;42935;50.966;16.992;2023-02-21T05:55:03;100954.92;;;7.14;100.00
57050;BME280;42935;50.966;16.992;2023-02-21T05:58:45;100955.51;;;7.10;100.00
57050;BME280;42935;50.966;16.992;2023-02-21T06:01:55;100961.42;;;7.13;100.00
57050;BME280;42935;50.966;16.992;2023-02-21T06:05:08;100954.95;;;7.12;100.00
57050;BME280;42935;50.966;16.992;2023-02-21T06:08:17;100959.69;;;7.15;100.00
57050;BME280;42935;50.966;16.992;2023-02-21T06:11:29;100964.05;;;7.15;100.00
57050;BME280;42935;50.966;16.992;2023-02-21T06:14:39;100962.48;;;7.14;100.00
57050;BME280;42935;50.966;16.992;2023-02-21T06:17:46;100963.77;;;7.15;100.00
57050;BME280;42935;50.966;16.992;2023-02-21T06:20:57;100971.31;;;7.12;100.00
57050;BME280;42935;50.966;16.992;2023-02-21T06:24:03;100967.98;;;7.11;100.00
57050;BME280;42935;50.966;16.992;2023-02-21T06:27:15;100976.00;;;7.16;100.00
57050;BME280;42935;50.966;16.992;2023-02-21T06:30:29;100985.30;;;7.17;100.00
57050;BME280;42935;50.966;16.992;2023-02-21T06:33:38;100987.25;;;7.22;100.00
57050;BME280;42935;50.966;16.992;2023-02-21T06:36:51;101001.07;;;7.21;100.00
57050;BME280;42935;50.966;16.992;2023-02-21T06:40:00;101000.71;;;7.29;100.00
57050;BME280;42935;50.966;16.992;2023-02-21T06:43:41;100997.81;;;7.33;100.00
57050;BME280;42935;50.966;16.992;2023-02-21T06:46:48;100993.63;;;7.35;100.00
57050;BME280;42935;50.966;16.992;2023-02-21T06:50:02;101006.40;;;7.39;100.00
57050;BME280;42935;50.966;16.992;2023-02-21T06:53:16;101016.31;;;7.45;100.00
57050;BME280;42935;50.966;16.992;2023-02-21T06:56:26;101016.58;;;7.50;100.00
57050;BME280;42935;50.966;16.992;2023-02-21T06:59:33;101016.59;;;7.54;100.00
57050;BME280;42935;50.966;16.992;2023-02-21T07:02:43;100975.55;;;7.33;100.00
57050;BME280;42935;50.966;16.992;2023-02-21T07:05:52;101003.70;;;7.64;100.00
57050;BME280;42935;50.966;16.992;2023-02-21T07:09:07;101009.55;;;7.73;100.00
57050;BME280;42935;50.966;16.992;2023-02-21T07:12:13;101008.79;;;7.69;100.00
57050;BME280;42935;50.966;16.992;2023-02-21T07:15:24;101022.73;;;7.79;100.00
57050;BME280;42935;50.966;16.992;2023-02-21T07:18:34;100988.30;;;7.64;100.00
57050;BME280;42935;50.966;16.992;2023-02-21T07:21:43;101029.04;;;7.95;100.00
57050;BME280;42935;50.966;16.992;2023-02-21T07:24:56;101033.91;;;7.97;100.00
57050;BME280;42935;50.966;16.992;2023-02-21T07:28:05;101026.20;;;8.02;100.00
57050;BME280;42935;50.966;16.992;2023-02-21T07:31:14;101029.72;;;8.15;100.00
57050;BME280;42935;50.966;16.992;2023-02-21T07:34:32;101027.03;;;8.19;100.00
57050;BME280;42935;50.966;16.992;2023-02-21T07:37:37;101029.10;;;8.19;100.00
57050;BME280;42935;50.966;16.992;2023-02-21T07:40:46;101020.05;;;8.19;100.00
57050;BME280;42935;50.966;16.992;2023-02-21T07:43:56;101033.55;;;8.23;100.00
57050;BME280;42935;50.966;16.992;2023-02-21T07:47:05;101037.69;;;8.27;100.00
57050;BME280;42935;50.966;16.992;2023-02-21T07:50:15;101046.98;;;8.33;100.00
57050;BME280;42935;50.966;16.992;2023-02-21T07:53:28;101045.65;;;8.34;100.00
57050;BME280;42935;50.966;16.992;2023-02-21T07:56:42;101030.43;;;8.28;100.00
57050;BME280;42935;50.966;16.992;2023-02-21T07:59:51;101045.63;;;8.28;100.00
57050;BME280;42935;50.966;16.992;2023-02-21T08:02:58;101048.73;;;8.33;100.00
57050;BME280;42935;50.966;16.992;2023-02-21T08:06:09;101054.35;;;8.36;100.00
57050;BME280;42935;50.966;16.992;2023-02-21T08:09:16;101049.88;;;8.35;100.00
57050;BME280;42935;50.966;16.992;2023-02-21T08:12:26;101063.12;;;8.34;100.00
57050;BME280;42935;50.966;16.992;2023-02-21T08:15:35;101053.74;;;8.44;100.00
57050;BME280;42935;50.966;16.992;2023-02-21T08:18:47;101053.73;;;8.55;100.00
57050;BME280;42935;50.966;16.992;2023-02-21T08:21:58;101070.98;;;8.51;100.00
57050;BME280;42935;50.966;16.992;2023-02-21T08:25:09;101066.97;;;8.68;100.00
57050;BME280;42935;50.966;16.992;2023-02-21T08:28:22;101068.15;;;8.69;100.00
57050;BME280;42935;50.966;16.992;2023-02-21T08:31:38;101069.46;;;8.64;100.00
57050;BME280;42935;50.966;16.992;2023-02-21T08:34:48;101066.39;;;8.87;100.00
57050;BME280;42935;50.966;16.992;2023-02-21T08:38:04;101075.48;;;8.83;100.00
57050;BME280;42935;50.966;16.992;2023-02-21T08:41:15;101061.80;;;8.70;100.00
57050;BME280;42935;50.966;16.992;2023-02-21T08:44:24;101069.21;;;8.75;100.00
57050;BME280;42935;50.966;16.992;2023-02-21T08:47:34;101066.59;;;8.68;100.00
57050;BME280;42935;50.966;16.992;2023-02-21T08:50:44;101083.54;;;8.79;100.00
57050;BME280;42935;50.966;16.992;2023-02-21T08:53:54;101070.51;;;8.84;100.00
57050;BME280;42935;50.966;16.992;2023-02-21T08:57:04;101081.18;;;8.94;100.00
57050;BME280;42935;50.966;16.992;2023-02-21T09:00:14;101077.84;;;8.99;100.00
57050;BME280;42935;50.966;16.992;2023-02-21T09:03:23;101087.03;;;9.07;100.00
57050;BME280;42935;50.966;16.992;2023-02-21T09:06:33;101089.30;;;9.07;100.00
57050;BME280;42935;50.966;16.992;2023-02-21T09:09:39;101073.89;;;9.05;100.00
57050;BME280;42935;50.966;16.992;2023-02-21T09:12:48;101073.88;;;8.95;100.00
57050;BME280;42935;50.966;16.992;2023-02-21T09:15:59;101077.63;;;8.97;100.00
57050;BME280;42935;50.966;16.992;2023-02-21T09:19:09;101063.70;;;8.96;100.00
57050;BME280;42935;50.966;16.992;2023-02-21T09:22:17;101078.32;;;9.04;100.00
57050;BME280;42935;50.966;16.992;2023-02-21T09:25:27;101077.27;;;9.15;100.00
57050;BME280;42935;50.966;16.992;2023-02-21T09:28:37;101084.93;;;9.20;100.00
57050;BME280;42935;50.966;16.992;2023-02-21T09:31:48;101090.24;;;9.19;100.00
57050;BME280;42935;50.966;16.992;2023-02-21T09:34:57;101102.85;;;9.23;100.00
57050;BME280;42935;50.966;16.992;2023-02-21T09:38:08;101100.05;;;9.28;100.00
57050;BME280;42935;50.966;16.992;2023-02-21T09:41:19;101112.18;;;9.22;100.00
57050;BME280;42935;50.966;16.992;2023-02-21T09:44:27;101108.78;;;9.21;100.00
57050;BME280;42935;50.966;16.992;2023-02-21T09:47:43;101129.46;;;9.10;100.00
57050;BME280;42935;50.966;16.992;2023-02-21T09:50:57;101107.97;;;9.07;100.00
57050;BME280;42935;50.966;16.992;2023-02-21T09:54:15;101099.66;;;9.11;100.00
57050;BME280;42935;50.966;16.992;2023-02-21T09:57:24;101128.83;;;9.27;100.00
57050;BME280;42935;50.966;16.992;2023-02-21T10:00:41;101116.59;;;9.30;100.00
57050;BME280;42935;50.966;16.992;2023-02-21T10:13:52;101138.09;;;9.23;100.00
57050;BME280;42935;50.966;16.992;2023-02-21T10:17:12;101128.52;;;9.11;100.00
57050;BME280;42935;50.966;16.992;2023-02-21T10:23:44;101141.15;;;8.58;100.00
57050;BME280;42935;50.966;16.992;2023-02-21T10:27:06;101153.63;;;8.49;100.00
57050;BME280;42935;50.966;16.992;2023-02-21T10:33:36;101167.66;;;8.58;100.00
57050;BME280;42935;50.966;16.992;2023-02-21T10:44:02;101152.27;;;8.16;100.00
57050;BME280;42935;50.966;16.992;2023-02-21T10:50:42;101161.59;;;8.36;100.00
57050;BME280;42935;50.966;16.992;2023-02-21T10:57:15;101138.59;;;8.49;100.00
57050;BME280;42935;50.966;16.992;2023-02-21T11:03:54;101166.91;;;8.47;100.00
57050;BME280;42935;50.966;16.992;2023-02-21T11:07:09;101155.05;;;8.48;100.00
57050;BME280;42935;50.966;16.992;2023-02-21T11:10:27;101171.32;;;8.61;100.00
57050;BME280;42935;50.966;16.992;2023-02-21T11:13:34;101172.52;;;8.72;100.00
57050;BME280;42935;50.966;16.992;2023-02-21T11:20:16;101171.22;;;8.73;100.00
57050;BME280;42935;50.966;16.992;2023-02-21T11:23:29;101174.47;;;8.78;100.00
57050;BME280;42935;50.966;16.992;2023-02-21T11:26:44;101191.72;;;8.80;100.00
57050;BME280;42935;50.966;16.992;2023-02-21T11:29:54;101183.27;;;8.80;100.00
57050;BME280;42935;50.966;16.992;2023-02-21T11:33:05;101164.48;;;8.69;100.00
57050;BME280;42935;50.966;16.992;2023-02-21T11:36:18;101162.09;;;8.75;100.00
57050;BME280;42935;50.966;16.992;2023-02-21T11:40:00;101162.16;;;8.74;100.00
57050;BME280;42935;50.966;16.992;2023-02-21T11:43:20;101177.52;;;8.72;100.00
57050;BME280;42935;50.966;16.992;2023-02-21T11:53:22;101188.38;;;8.52;100.00
57050;BME280;42935;50.966;16.992;2023-02-21T11:56:41;101177.30;;;8.53;100.00
57050;BME280;42935;50.966;16.992;2023-02-21T12:30:01;101179.33;;;9.36;100.00
57050;BME280;42935;50.966;16.992;2023-02-21T12:50:00;101153.06;;;9.32;100.00
57050;BME280;42935;50.966;16.992;2023-02-21T13:03:24;101164.27;;;9.60;100.00
57050;BME280;42935;50.966;16.992;2023-02-21T13:13:15;101150.63;;;10.36;100.00
57050;BME280;42935;50.966;16.992;2023-02-21T13:16:27;101158.81;;;9.84;100.00
57050;BME280;42935;50.966;16.992;2023-02-21T13:29:51;101169.20;;;9.67;100.00
57050;BME280;42935;50.966;16.992;2023-02-21T13:33:06;101169.95;;;9.74;100.00
57050;BME280;42935;50.966;16.992;2023-02-21T13:36:39;101172.08;;;9.73;100.00
57050;BME280;42935;50.966;16.992;2023-02-21T13:39:36;101172.06;;;9.68;100.00
57050;BME280;42935;50.966;16.992;2023-02-21T13:42:46;101171.88;;;9.79;100.00
57050;BME280;42935;50.966;16.992;2023-02-21T13:59:32;101177.49;;;9.77;100.00
57050;BME280;42935;50.966;16.992;2023-02-21T14:09:28;101172.99;;;9.70;100.00
57050;BME280;42935;50.966;16.992;2023-02-21T14:12:43;101178.77;;;9.53;100.00
57050;BME280;42935;50.966;16.992;2023-02-21T14:15:55;101170.74;;;9.40;100.00
57050;BME280;42935;50.966;16.992;2023-02-21T14:19:10;101170.77;;;9.34;100.00
57050;BME280;42935;50.966;16.992;2023-02-21T14:22:27;101170.34;;;9.38;100.00
57050;BME280;42935;50.966;16.992;2023-02-21T14:25:37;101163.99;;;9.75;100.00
57050;BME280;42935;50.966;16.992;2023-02-21T14:29:00;101167.20;;;10.06;100.00
57050;BME280;42935;50.966;16.992;2023-02-21T14:32:14;101170.68;;;10.08;100.00
57050;BME280;42935;50.966;16.992;2023-02-21T14:35:37;101175.68;;;10.32;100.00
57050;BME280;42935;50.966;16.992;2023-02-21T14:38:52;101167.86;;;10.22;100.00
57050;BME280;42935;50.966;16.992;2023-02-21T14:52:17;101187.98;;;10.34;100.00
57050;BME280;42935;50.966;16.992;2023-02-21T14:55:43;101170.57;;;10.28;100.00
57050;BME280;42935;50.966;16.992;2023-02-21T15:05:37;101177.59;;;10.11;100.00
57050;BME280;42935;50.966;16.992;2023-02-21T15:09:20;101187.59;;;10.13;100.00
57050;BME280;42935;50.966;16.992;2023-02-21T15:12:40;101182.35;;;9.79;100.00
57050;BME280;42935;50.966;16.992;2023-02-21T15:22:35;101190.91;;;9.17;100.00
57050;BME280;42935;50.966;16.992;2023-02-21T15:25:55;101201.84;;;9.22;100.00
57050;BME280;42935;50.966;16.992;2023-02-21T15:29:10;101200.33;;;9.16;100.00
57050;BME280;42935;50.966;16.992;2023-02-21T15:32:21;101208.61;;;9.03;100.00
57050;BME280;42935;50.966;16.992;2023-02-21T15:35:46;101205.88;;;8.94;100.00
57050;BME280;42935;50.966;16.992;2023-02-21T15:39:02;101216.11;;;8.96;100.00
57050;BME280;42935;50.966;16.992;2023-02-21T15:42:17;101220.68;;;8.89;100.00
57050;BME280;42935;50.966;16.992;2023-02-21T15:45:30;101217.79;;;8.84;100.00
57050;BME280;42935;50.966;16.992;2023-02-21T15:48:41;101218.93;;;8.83;100.00
57050;BME280;42935;50.966;16.992;2023-02-21T15:51:50;101223.28;;;8.79;100.00
57050;BME280;42935;50.966;16.992;2023-02-21T15:58:26;101229.13;;;8.78;100.00
57050;BME280;42935;50.966;16.992;2023-02-21T16:01:37;101235.64;;;8.76;100.00
57050;BME280;42935;50.966;16.992;2023-02-21T16:04:48;101239.77;;;8.75;100.00
57050;BME280;42935;50.966;16.992;2023-02-21T16:08:03;101239.94;;;8.73;100.00
57050;BME280;42935;50.966;16.992;2023-02-21T16:11:12;101242.01;;;8.68;100.00
57050;BME280;42935;50.966;16.992;2023-02-21T16:14:34;101230.94;;;8.49;100.00
57050;BME280;42935;50.966;16.992;2023-02-21T16:17:54;101245.52;;;8.54;100.00
57050;BME280;42935;50.966;16.992;2023-02-21T16:21:07;101247.94;;;8.54;100.00
57050;BME280;42935;50.966;16.992;2023-02-21T16:24:28;101251.45;;;8.49;100.00
57050;BME280;42935;50.966;16.992;2023-02-21T16:27:40;101255.63;;;8.45;100.00
57050;BME280;42935;50.966;16.992;2023-02-21T16:30:52;101262.02;;;8.51;100.00
57050;BME280;42935;50.966;16.992;2023-02-21T16:34:04;101265.91;;;8.50;100.00
57050;BME280;42935;50.966;16.992;2023-02-21T16:37:17;101272.04;;;8.47;100.00
57050;BME280;42935;50.966;16.992;2023-02-21T16:40:29;101275.94;;;8.44;100.00
57050;BME280;42935;50.966;16.992;2023-02-21T16:43:38;101283.82;;;8.34;100.00
57050;BME280;42935;50.966;16.992;2023-02-21T16:46:50;101285.83;;;8.24;100.00
57050;BME280;42935;50.966;16.992;2023-02-21T16:49:57;101297.20;;;8.28;100.00
57050;BME280;42935;50.966;16.992;2023-02-21T16:53:11;101286.74;;;8.14;100.00
57050;BME280;42935;50.966;16.992;2023-02-21T16:56:18;101294.81;;;8.09;100.00
57050;BME280;42935;50.966;16.992;2023-02-21T16:59:25;101314.38;;;8.03;100.00
57050;BME280;42935;50.966;16.992;2023-02-21T17:02:32;101324.14;;;7.97;100.00
57050;BME280;42935;50.966;16.992;2023-02-21T17:05:42;101315.77;;;7.83;100.00
57050;BME280;42935;50.966;16.992;2023-02-21T17:08:56;101331.09;;;7.83;100.00
57050;BME280;42935;50.966;16.992;2023-02-21T17:12:11;101333.84;;;7.67;100.00
57050;BME280;42935;50.966;16.992;2023-02-21T17:15:22;101317.71;;;7.53;100.00
57050;BME280;42935;50.966;16.992;2023-02-21T17:18:34;101353.36;;;7.61;100.00
57050;BME280;42935;50.966;16.992;2023-02-21T17:21:44;101349.43;;;7.58;100.00
57050;BME280;42935;50.966;16.992;2023-02-21T17:24:53;101351.48;;;7.60;100.00
57050;BME280;42935;50.966;16.992;2023-02-21T17:28:05;101359.96;;;7.52;100.00
57050;BME280;42935;50.966;16.992;2023-02-21T17:31:15;101374.21;;;7.53;100.00
57050;BME280;42935;50.966;16.992;2023-02-21T17:34:28;101369.78;;;7.45;100.00
57050;BME280;42935;50.966;16.992;2023-02-21T17:37:41;101372.39;;;7.39;100.00
57050;BME280;42935;50.966;16.992;2023-02-21T17:40:52;101375.38;;;7.36;100.00
57050;BME280;42935;50.966;16.992;2023-02-21T17:43:57;101366.16;;;7.27;100.00
57050;BME280;42935;50.966;16.992;2023-02-21T17:47:08;101376.51;;;7.27;100.00
57050;BME280;42935;50.966;16.992;2023-02-21T17:50:18;101366.19;;;7.21;100.00
57050;BME280;42935;50.966;16.992;2023-02-21T17:53:28;101373.70;;;7.19;100.00
57050;BME280;42935;50.966;16.992;2023-02-21T17:56:36;101374.63;;;7.17;100.00
57050;BME280;42935;50.966;16.992;2023-02-21T17:59:47;101380.13;;;7.10;100.00
57050;BME280;42935;50.966;16.992;2023-02-21T18:02:58;101386.41;;;7.08;100.00
57050;BME280;42935;50.966;16.992;2023-02-21T18:06:20;101379.55;;;6.96;100.00
57050;BME280;42935;50.966;16.992;2023-02-21T18:09:31;101377.48;;;6.98;100.00
57050;BME280;42935;50.966;16.992;2023-02-21T18:12:38;101373.95;;;6.92;100.00
57050;BME280;42935;50.966;16.992;2023-02-21T18:15:47;101381.02;;;6.85;100.00
57050;BME280;42935;50.966;16.992;2023-02-21T18:18:57;101401.84;;;6.87;100.00
57050;BME280;42935;50.966;16.992;2023-02-21T18:22:03;101397.34;;;6.84;100.00
57050;BME280;42935;50.966;16.992;2023-02-21T18:25:10;101400.88;;;6.77;100.00
57050;BME280;42935;50.966;16.992;2023-02-21T18:28:21;101404.56;;;6.73;100.00
57050;BME280;42935;50.966;16.992;2023-02-21T18:31:28;101405.64;;;6.69;100.00
57050;BME280;42935;50.966;16.992;2023-02-21T18:34:41;101407.41;;;6.70;100.00
57050;BME280;42935;50.966;16.992;2023-02-21T18:37:52;101410.57;;;6.68;100.00
57050;BME280;42935;50.966;16.992;2023-02-21T18:41:07;101415.82;;;6.62;100.00
57050;BME280;42935;50.966;16.992;2023-02-21T18:44:20;101410.13;;;6.57;100.00
57050;BME280;42935;50.966;16.992;2023-02-21T18:47:30;101405.98;;;6.55;100.00
57050;BME280;42935;50.966;16.992;2023-02-21T18:50:43;101415.75;;;6.58;100.00
57050;BME280;42935;50.966;16.992;2023-02-21T18:53:56;101417.70;;;6.56;100.00
57050;BME280;42935;50.966;16.992;2023-02-21T18:57:08;101417.21;;;6.47;100.00
57050;BME280;42935;50.966;16.992;2023-02-21T19:00:19;101409.02;;;6.41;100.00
57050;BME280;42935;50.966;16.992;2023-02-21T19:03:27;101421.46;;;6.48;100.00
57050;BME280;42935;50.966;16.992;2023-02-21T19:06:33;101422.66;;;6.42;100.00
57050;BME280;42935;50.966;16.992;2023-02-21T19:10:18;101424.38;;;6.34;100.00
57050;BME280;42935;50.966;16.992;2023-02-21T19:13:30;101436.82;;;6.36;100.00
57050;BME280;42935;50.966;16.992;2023-02-21T19:16:40;101440.66;;;6.33;100.00
57050;BME280;42935;50.966;16.992;2023-02-21T19:19:50;101445.70;;;6.34;100.00
57050;BME280;42935;50.966;16.992;2023-02-21T19:23:00;101454.82;;;6.31;100.00
57050;BME280;42935;50.966;16.992;2023-02-21T19:26:10;101451.31;;;6.31;100.00
57050;BME280;42935;50.966;16.992;2023-02-21T19:29:15;101456.38;;;6.29;100.00
57050;BME280;42935;50.966;16.992;2023-02-21T19:32:20;101459.96;;;6.24;100.00
57050;BME280;42935;50.966;16.992;2023-02-21T19:35:30;101460.68;;;6.24;100.00
57050;BME280;42935;50.966;16.992;2023-02-21T19:38:40;101464.31;;;6.27;100.00
57050;BME280;42935;50.966;16.992;2023-02-21T19:41:50;101460.78;;;6.24;100.00
57050;BME280;42935;50.966;16.992;2023-02-21T19:45:00;101470.61;;;6.31;100.00
57050;BME280;42935;50.966;16.992;2023-02-21T19:48:08;101468.56;;;6.23;100.00
57050;BME280;42935;50.966;16.992;2023-02-21T19:51:17;101476.37;;;6.32;100.00
57050;BME280;42935;50.966;16.992;2023-02-21T19:54:28;101483.12;;;6.35;100.00
57050;BME280;42935;50.966;16.992;2023-02-21T19:57:39;101474.90;;;6.27;100.00